createdAt,value
2019-01-23T00:01:32.094Z,28.23
2019-01-23T00:04:13.045Z,29.17
2019-01-23T00:09:51.903Z,30.67
2019-01-23T00:12:35.986Z,29.27
2019-01-23T00:15:17.059Z,29.17
2019-01-23T00:17:57.923Z,29.30
2019-01-23T00:20:40.957Z,29.37
2019-01-23T00:23:09.660Z,31.93
2019-01-23T00:25:57.478Z,31.03
2019-01-23T00:28:45.276Z,29.53
2019-01-23T00:31:33.072Z,31.33
2019-01-23T00:34:20.860Z,30.90
2019-01-23T00:37:27.848Z,31.30
2019-01-23T00:40:17.787Z,30.23
2019-01-23T00:43:05.814Z,29.87
2019-01-23T00:45:46.537Z,30.90
2019-01-23T00:48:27.505Z,31.47
2019-01-23T00:51:08.414Z,32.33
2019-01-23T00:53:49.374Z,31.20
2019-01-23T00:56:32.794Z,32.07
2019-01-23T00:59:13.609Z,32.53
2019-01-23T01:01:54.676Z,32.73
2019-01-23T01:04:35.228Z,32.17
2019-01-23T01:07:16.036Z,31.87
2019-01-23T01:09:56.520Z,32.30
2019-01-23T01:12:24.944Z,30.77
2019-01-23T01:15:13.445Z,33.93
2019-01-23T01:18:02.380Z,32.77
2019-01-23T01:20:50.180Z,32.97
2019-01-23T01:23:37.962Z,33.00
2019-01-23T01:26:25.775Z,33.93
2019-01-23T01:29:13.924Z,33.60
2019-01-23T01:32:01.717Z,33.50
2019-01-23T01:34:49.531Z,32.33
2019-01-23T01:37:37.337Z,33.10
2019-01-23T01:40:25.187Z,33.53
2019-01-23T01:43:12.969Z,33.37
2019-01-23T01:45:54.513Z,34.00
2019-01-23T01:48:35.021Z,35.17
2019-01-23T01:51:16.032Z,34.17
2019-01-23T01:53:57.038Z,32.40
2019-01-23T01:56:37.965Z,34.10
2019-01-23T01:59:18.891Z,34.47
2019-01-23T02:01:59.883Z,32.27
2019-01-23T02:04:40.304Z,34.40
2019-01-23T02:06:59.018Z,34.20
2019-01-23T02:09:47.079Z,35.70
2019-01-23T02:12:34.981Z,34.47
2019-01-23T02:15:22.898Z,34.10
2019-01-23T02:18:10.718Z,33.03
2019-01-23T02:24:07.777Z,34.17
2019-01-23T02:26:55.551Z,32.93
2019-01-23T02:29:43.369Z,33.50
2019-01-23T02:32:31.178Z,35.57
2019-01-23T02:34:59.640Z,34.57
2019-01-23T02:37:47.982Z,35.03
2019-01-23T02:40:36.031Z,36.00
2019-01-23T02:43:23.969Z,35.60
2019-01-23T02:46:11.755Z,35.87
2019-01-23T02:49:00.479Z,36.83
2019-01-23T02:51:28.917Z,35.70
2019-01-23T02:54:10.152Z,37.43
2019-01-23T02:56:50.610Z,35.00
2019-01-23T02:59:31.525Z,36.43
2019-01-23T03:02:12.056Z,34.80
2019-01-23T03:04:53.425Z,34.83
2019-01-23T03:07:33.796Z,38.27
2019-01-23T03:10:14.411Z,37.87
2019-01-23T03:12:55.268Z,37.60
2019-01-23T03:15:36.298Z,36.27
2019-01-23T03:18:17.025Z,36.10
2019-01-23T03:20:57.441Z,36.93
2019-01-23T03:23:38.435Z,37.13
2019-01-23T03:26:18.829Z,37.67
2019-01-23T03:31:30.218Z,39.73
2019-01-23T03:34:18.062Z,38.93
2019-01-23T03:37:05.886Z,39.17
2019-01-23T03:39:54.953Z,38.13
2019-01-23T03:42:42.751Z,38.37
2019-01-23T03:45:23.089Z,38.67
2019-01-23T03:48:03.647Z,39.77
2019-01-23T03:50:44.052Z,38.57
2019-01-23T03:53:25.049Z,38.73
2019-01-23T03:56:05.578Z,38.53
2019-01-23T03:58:45.910Z,37.73
2019-01-23T04:01:26.436Z,38.17
2019-01-23T04:04:07.323Z,39.57
2019-01-23T04:06:47.965Z,39.30
2019-01-23T04:09:28.796Z,40.13
2019-01-23T04:12:10.146Z,39.93
2019-01-23T04:14:50.956Z,40.70
2019-01-23T04:17:31.885Z,39.80
2019-01-23T04:20:12.721Z,38.37
2019-01-23T04:22:53.767Z,38.20
2019-01-23T04:25:34.735Z,39.33
2019-01-23T04:28:15.530Z,40.43
2019-01-23T04:30:56.250Z,38.83
2019-01-23T04:33:37.311Z,39.67
2019-01-23T04:36:06.020Z,39.73
2019-01-23T04:38:53.841Z,40.30
2019-01-23T04:41:41.604Z,40.87
2019-01-23T04:44:29.398Z,39.77
2019-01-23T04:49:44.456Z,39.67
2019-01-23T04:55:30.011Z,41.10
2019-01-23T04:57:58.441Z,39.30
2019-01-23T05:00:46.255Z,39.37
2019-01-23T05:03:34.036Z,40.97
2019-01-23T05:06:21.819Z,40.43
2019-01-23T05:09:09.640Z,38.13
2019-01-23T05:11:57.439Z,39.80
2019-01-23T05:14:45.251Z,40.23
2019-01-23T05:17:33.129Z,39.67
2019-01-23T05:20:20.954Z,39.27
2019-01-23T05:23:08.781Z,38.33
2019-01-23T05:25:56.581Z,39.03
2019-01-23T05:28:44.341Z,39.13
2019-01-23T05:31:25.238Z,40.07
2019-01-23T05:34:06.051Z,40.17
2019-01-23T05:36:34.527Z,39.07
2019-01-23T05:39:22.550Z,38.90
2019-01-23T05:42:10.411Z,40.37
2019-01-23T05:44:58.239Z,39.13
2019-01-23T05:47:46.137Z,41.57
2019-01-23T05:50:26.690Z,39.53
2019-01-23T05:53:07.949Z,39.93
2019-01-23T05:55:48.698Z,38.90
2019-01-23T05:58:30.059Z,41.47
2019-01-23T06:00:58.539Z,38.97
2019-01-23T06:03:46.342Z,41.10
2019-01-23T06:06:34.161Z,37.83
2019-01-23T06:09:22.771Z,39.67
2019-01-23T06:12:11.485Z,40.80
2019-01-23T06:14:59.357Z,37.07
2019-01-23T06:17:47.369Z,39.43
2019-01-23T06:20:55.644Z,39.33
2019-01-23T06:23:43.509Z,39.13
2019-01-23T06:26:31.326Z,38.27
2019-01-23T06:29:19.146Z,38.50
2019-01-23T06:32:27.769Z,38.80
2019-01-23T06:35:15.714Z,37.70
2019-01-23T06:38:03.509Z,35.67
2019-01-23T06:40:51.417Z,40.00
2019-01-23T06:43:39.180Z,38.33
2019-01-23T06:46:27.045Z,39.77
2019-01-23T06:49:08.228Z,37.23
2019-01-23T06:51:36.712Z,39.03
2019-01-23T06:54:24.741Z,38.20
2019-01-23T06:57:12.542Z,39.23
2019-01-23T07:00:21.048Z,40.47
2019-01-23T07:03:08.841Z,37.27
2019-01-23T07:05:56.873Z,38.73
2019-01-23T07:08:44.694Z,37.57
2019-01-23T07:11:32.460Z,39.10
2019-01-23T07:14:20.416Z,39.00
2019-01-23T07:17:08.832Z,39.03
2019-01-23T07:19:56.865Z,38.37
2019-01-23T07:22:44.685Z,38.60
2019-01-23T07:25:13.263Z,37.10
2019-01-23T07:27:41.762Z,40.27
2019-01-23T07:30:50.347Z,37.63
2019-01-23T07:33:38.396Z,36.43
2019-01-23T07:36:06.858Z,38.43
2019-01-23T07:38:54.709Z,37.60
2019-01-23T07:41:42.580Z,37.67
2019-01-23T07:44:30.469Z,37.83
2019-01-23T07:47:18.725Z,38.27
2019-01-23T07:49:59.282Z,39.53
2019-01-23T07:52:40.058Z,38.47
2019-01-23T07:55:29.492Z,38.90
2019-01-23T07:58:17.601Z,39.90
2019-01-23T08:01:05.429Z,38.40
2019-01-23T08:03:53.207Z,36.80
2019-01-23T08:06:41.019Z,37.27
2019-01-23T08:09:28.962Z,37.07
2019-01-23T08:12:16.773Z,38.13
2019-01-23T08:15:25.323Z,38.00
2019-01-23T08:18:13.190Z,38.27
2019-01-23T08:20:41.653Z,37.27
2019-01-23T08:23:29.492Z,37.23
2019-01-23T08:26:17.269Z,37.50
2019-01-23T08:29:05.186Z,35.33
2019-01-23T08:31:53.029Z,37.97
2019-01-23T08:34:40.811Z,38.80
2019-01-23T08:37:28.611Z,37.57
2019-01-23T08:40:17.369Z,37.50
2019-01-23T08:43:05.919Z,36.60
2019-01-23T08:45:54.694Z,40.20
2019-01-23T08:48:23.132Z,38.23
2019-01-23T08:50:51.625Z,36.57
2019-01-23T08:53:39.664Z,36.90
2019-01-23T08:56:27.563Z,37.63
2019-01-23T08:59:15.403Z,37.77
2019-01-23T09:02:03.246Z,36.90
2019-01-23T09:04:51.267Z,39.33
2019-01-23T09:07:31.866Z,37.37
2019-01-23T09:10:12.664Z,35.90
2019-01-23T09:12:53.794Z,37.03
2019-01-23T09:15:32.599Z,37.50
2019-01-23T09:18:20.344Z,37.37
2019-01-23T09:21:08.182Z,36.40
2019-01-23T09:23:56.237Z,37.87
2019-01-23T09:26:24.681Z,38.00
2019-01-23T09:29:12.487Z,38.20
2019-01-23T09:32:19.622Z,37.83
2019-01-23T09:35:27.013Z,39.27
2019-01-23T09:38:16.476Z,38.20
2019-01-23T09:41:23.722Z,39.77
2019-01-23T09:44:32.315Z,39.93
2019-01-23T09:47:39.519Z,39.80
2019-01-23T09:50:51.450Z,37.23
2019-01-23T09:53:40.768Z,37.40
2019-01-23T09:56:28.646Z,38.67
2019-01-23T09:59:09.409Z,38.23
2019-01-23T10:01:27.308Z,38.80
2019-01-23T10:04:15.141Z,38.23
2019-01-23T10:07:03.003Z,39.47
2019-01-23T10:09:50.787Z,39.13
2019-01-23T10:12:38.599Z,37.70
2019-01-23T10:15:47.177Z,38.37
2019-01-23T10:18:34.948Z,40.47
2019-01-23T10:21:22.784Z,38.53
2019-01-23T10:24:10.565Z,37.90
2019-01-23T10:26:58.361Z,40.57
2019-01-23T10:29:46.125Z,38.40
2019-01-23T10:32:14.829Z,39.13
2019-01-23T10:35:02.745Z,40.70
2019-01-23T10:37:31.302Z,40.67
2019-01-23T10:40:19.177Z,40.07
2019-01-23T10:43:06.973Z,42.20
2019-01-23T10:45:57.614Z,39.13
2019-01-23T10:48:38.766Z,37.83
2019-01-23T10:51:07.217Z,40.60
2019-01-23T10:53:55.023Z,40.33
2019-01-23T10:56:23.630Z,38.60
2019-01-23T10:59:11.437Z,39.50
2019-01-23T11:01:59.344Z,39.00
2019-01-23T11:04:47.209Z,38.00
2019-01-23T11:07:35.188Z,39.30
2019-01-23T11:10:23.968Z,39.70
2019-01-23T11:13:11.945Z,39.43
2019-01-23T11:15:59.899Z,39.07
2019-01-23T11:18:48.011Z,39.17
2019-01-23T11:21:35.927Z,40.00
2019-01-23T11:24:23.721Z,41.37
2019-01-23T11:27:11.504Z,42.07
2019-01-23T11:30:13.379Z,42.80
2019-01-23T11:32:29.554Z,42.33
2019-01-23T11:35:24.648Z,41.23
2019-01-23T11:41:03.699Z,41.13
2019-01-23T11:43:51.868Z,43.53
2019-01-23T11:46:39.801Z,41.77
2019-01-23T11:52:04.180Z,39.90
2019-01-23T11:54:32.698Z,40.77
2019-01-23T12:03:10.612Z,41.87
2019-01-23T12:05:58.437Z,37.10
2019-01-23T12:08:46.229Z,40.30
2019-01-23T12:11:34.068Z,38.03
2019-01-23T12:14:22.168Z,37.93
2019-01-23T12:17:11.479Z,39.97
2019-01-23T12:19:59.355Z,38.57
2019-01-23T12:22:59.656Z,40.07
2019-01-23T12:25:17.992Z,39.53
2019-01-23T12:28:06.020Z,37.57
2019-01-23T12:31:18.852Z,38.13
2019-01-23T12:34:04.378Z,38.93
2019-01-23T12:37:14.767Z,39.17
2019-01-23T12:40:03.243Z,37.67
2019-01-23T12:46:24.831Z,37.47
2019-01-23T12:51:49.497Z,38.53
2019-01-23T12:54:30.781Z,36.97
2019-01-23T12:57:11.985Z,37.80
2019-01-23T12:59:52.888Z,37.77
2019-01-23T13:02:35.314Z,37.90
2019-01-23T13:05:16.163Z,39.40
2019-01-23T13:07:57.157Z,38.90
2019-01-23T13:10:37.722Z,38.63
2019-01-23T13:13:19.292Z,39.03
2019-01-23T13:16:00.404Z,38.80
2019-01-23T13:18:28.944Z,39.13
2019-01-23T13:21:37.413Z,22.50
2019-01-23T13:24:25.201Z,39.13
2019-01-23T13:30:47.804Z,39.93
2019-01-23T13:33:35.600Z,39.50
2019-01-23T13:36:23.488Z,39.77
2019-01-23T13:39:11.307Z,38.67
2019-01-23T13:41:59.070Z,39.47
2019-01-23T13:44:46.821Z,38.00
2019-01-23T13:47:34.612Z,39.73
2019-01-23T13:50:17.717Z,37.60
2019-01-23T13:52:58.894Z,36.30
2019-01-23T13:58:23.121Z,38.63
2019-01-23T14:01:07.662Z,37.10
2019-01-23T14:03:52.569Z,36.73
2019-01-23T14:06:34.062Z,38.93
2019-01-23T14:09:16.779Z,37.03
2019-01-23T14:11:58.477Z,36.33
2019-01-23T14:14:39.103Z,42.83
2019-01-23T14:17:19.890Z,38.93
2019-01-23T14:19:48.316Z,38.23
2019-01-23T14:22:36.061Z,37.53
2019-01-23T14:25:23.972Z,38.93
2019-01-23T14:28:11.737Z,37.67
2019-01-23T14:30:59.517Z,38.43
2019-01-23T14:33:47.268Z,38.20
2019-01-23T14:36:35.209Z,38.37
2019-01-23T14:39:22.961Z,39.07
2019-01-23T14:42:04.232Z,39.10
2019-01-23T14:44:44.677Z,39.50
2019-01-23T14:47:25.508Z,40.27
2019-01-23T14:50:05.797Z,39.30
2019-01-23T14:52:46.721Z,40.40
2019-01-23T14:55:27.969Z,39.20
2019-01-23T14:58:08.905Z,38.30
2019-01-23T15:00:50.076Z,39.07
2019-01-23T15:03:30.960Z,38.57
2019-01-23T15:06:12.017Z,38.53
2019-01-23T15:08:52.540Z,37.97
2019-01-23T15:17:30.103Z,39.27
2019-01-23T15:20:10.781Z,39.90
2019-01-23T15:22:51.374Z,39.67
2019-01-23T15:25:31.797Z,40.83
2019-01-23T15:28:12.427Z,40.63
2019-01-23T15:30:53.290Z,40.57
2019-01-23T15:33:33.902Z,41.23
2019-01-23T15:36:14.492Z,41.33
2019-01-23T15:38:55.120Z,41.03
2019-01-23T15:41:35.945Z,41.27
2019-01-23T15:44:19.044Z,41.90
2019-01-23T15:46:59.840Z,42.83
2019-01-23T15:49:40.809Z,43.00
2019-01-23T15:52:21.491Z,41.43
2019-01-23T15:55:02.133Z,41.33
2019-01-23T15:57:43.457Z,41.93
2019-01-23T16:00:24.003Z,42.97
2019-01-23T16:03:05.504Z,42.17
2019-01-23T16:05:45.744Z,42.50
2019-01-23T16:08:14.190Z,42.30
2019-01-23T16:11:02.016Z,41.97
2019-01-23T16:13:49.767Z,41.87
2019-01-23T16:16:37.565Z,40.93
2019-01-23T16:19:37.470Z,42.60
2019-01-23T16:22:15.049Z,42.87
2019-01-23T16:27:57.781Z,42.80
2019-01-23T16:30:45.536Z,41.63
2019-01-23T16:33:33.333Z,44.17
2019-01-23T16:36:21.094Z,44.87
2019-01-23T16:39:09.359Z,42.80
2019-01-23T16:41:38.484Z,42.10
2019-01-23T16:44:26.427Z,47.23
2019-01-23T16:47:14.202Z,42.87
2019-01-23T16:50:01.895Z,43.17
2019-01-23T16:52:42.521Z,42.73
2019-01-23T16:55:11.150Z,44.03
2019-01-23T16:58:00.232Z,44.83
2019-01-23T17:00:29.709Z,44.07
2019-01-23T17:03:17.484Z,44.77
2019-01-23T17:06:05.324Z,45.13
2019-01-23T17:08:53.139Z,45.20
2019-01-23T17:11:41.204Z,45.07
2019-01-23T17:14:29.228Z,45.27
2019-01-23T17:17:17.052Z,46.10
2019-01-23T17:20:25.609Z,45.53
2019-01-23T17:23:13.350Z,45.37
2019-01-23T17:26:01.133Z,43.77
2019-01-23T17:28:48.927Z,46.13
2019-01-23T17:31:36.701Z,46.73
2019-01-23T17:34:24.477Z,46.47
2019-01-23T17:37:12.257Z,46.27
2019-01-23T17:40:00.022Z,45.60
2019-01-23T17:45:56.510Z,46.97
2019-01-23T17:48:44.383Z,46.87
2019-01-23T17:51:32.148Z,47.13
2019-01-23T17:54:20.162Z,47.23
2019-01-23T17:57:08.090Z,48.13
2019-01-23T17:59:56.027Z,49.57
2019-01-23T18:02:43.765Z,50.57
2019-01-23T18:05:31.694Z,49.30
2019-01-23T18:08:20.009Z,48.10
2019-01-23T18:11:07.760Z,49.30
2019-01-23T18:13:55.533Z,48.20
2019-01-23T18:16:43.423Z,49.77
2019-01-23T18:19:31.192Z,49.13
2019-01-23T18:22:18.997Z,48.60
2019-01-23T18:25:07.673Z,48.93
2019-01-23T18:27:55.425Z,49.13
2019-01-23T18:31:02.570Z,49.10
2019-01-23T18:34:09.671Z,51.80
2019-01-23T18:37:18.451Z,48.93
2019-01-23T18:40:25.645Z,49.27
2019-01-23T18:43:32.799Z,49.60
2019-01-23T18:46:39.909Z,51.93
2019-01-23T18:49:47.052Z,50.27
2019-01-23T18:52:28.225Z,50.07
2019-01-23T18:55:09.009Z,51.37
2019-01-23T18:57:49.794Z,52.40
2019-01-23T19:00:30.610Z,50.90
2019-01-23T19:03:11.524Z,53.67
2019-01-23T19:05:52.028Z,51.70
2019-01-23T19:08:32.502Z,52.33
2019-01-23T19:11:12.970Z,52.33
2019-01-23T19:13:53.633Z,51.70
2019-01-23T19:16:34.678Z,51.87
2019-01-23T19:19:15.921Z,52.93
2019-01-23T19:21:56.755Z,52.33
2019-01-23T19:24:37.704Z,52.00
2019-01-23T19:27:18.219Z,53.83
2019-01-23T19:30:08.905Z,53.97
2019-01-23T19:32:44.799Z,54.60
2019-01-23T19:35:28.021Z,52.23
2019-01-23T19:38:08.412Z,56.00
2019-01-23T19:40:49.637Z,53.23
2019-01-23T19:43:29.993Z,54.53
2019-01-23T19:46:11.166Z,56.73
2019-01-23T19:48:52.364Z,53.70
2019-01-23T19:51:32.920Z,54.13
2019-01-23T19:54:16.569Z,53.80
2019-01-23T19:56:57.822Z,53.57
2019-01-23T19:59:38.556Z,57.20
2019-01-23T20:02:19.249Z,55.57
2019-01-23T20:05:00.196Z,53.83
2019-01-23T20:07:41.872Z,54.10
2019-01-23T20:10:23.167Z,55.97
2019-01-23T20:13:03.821Z,54.47
2019-01-23T20:15:44.871Z,54.20
2019-01-23T20:18:25.490Z,54.33
2019-01-23T20:21:06.381Z,55.23
2019-01-23T20:23:47.605Z,53.97
2019-01-23T20:26:28.363Z,55.53
2019-01-23T20:29:09.154Z,53.83
2019-01-23T20:31:49.978Z,57.23
2019-01-23T20:34:30.988Z,56.27
2019-01-23T20:37:11.790Z,53.37
2019-01-23T20:39:52.556Z,54.50
2019-01-23T20:42:33.418Z,55.07
2019-01-23T20:45:14.386Z,54.33
2019-01-23T20:47:55.348Z,56.40
2019-01-23T20:50:36.133Z,57.67
2019-01-23T20:53:17.129Z,56.43
2019-01-23T20:55:57.548Z,57.13
2019-01-23T20:58:38.251Z,57.47
2019-01-23T21:01:18.926Z,58.53
2019-01-23T21:03:59.426Z,59.47
2019-01-23T21:06:39.905Z,57.73
2019-01-23T21:09:20.576Z,58.97
2019-01-23T21:12:01.125Z,57.03
2019-01-23T21:14:41.642Z,58.77
2019-01-23T21:17:22.441Z,59.33
2019-01-23T21:20:03.208Z,57.27
2019-01-23T21:22:44.016Z,61.63
2019-01-23T21:25:24.304Z,58.67
2019-01-23T21:28:05.012Z,59.57
2019-01-23T21:30:45.532Z,59.87
2019-01-23T21:33:26.356Z,61.17
2019-01-23T21:36:06.951Z,60.10
2019-01-23T21:38:47.618Z,64.60
2019-01-23T21:41:28.194Z,65.50
2019-01-23T21:44:08.968Z,66.90
2019-01-23T21:46:49.630Z,67.10
2019-01-23T21:49:30.605Z,69.47
2019-01-23T21:52:11.296Z,67.33
2019-01-23T21:54:52.494Z,68.27
2019-01-23T21:57:33.726Z,68.80
2019-01-23T22:00:15.284Z,66.87
2019-01-23T22:02:56.316Z,69.23
2019-01-23T22:05:38.116Z,70.20
2019-01-23T22:08:18.944Z,72.87
2019-01-23T22:11:00.061Z,71.00
2019-01-23T22:13:40.549Z,67.80
2019-01-23T22:16:21.973Z,67.40
2019-01-23T22:19:02.501Z,69.67
2019-01-23T22:21:43.336Z,73.27
2019-01-23T22:24:24.405Z,70.33
2019-01-23T22:27:05.384Z,69.87
2019-01-23T22:29:46.002Z,71.97
2019-01-23T22:32:26.661Z,67.53
2019-01-23T22:35:07.036Z,66.77
2019-01-23T22:37:48.078Z,65.00
2019-01-23T22:40:28.777Z,69.57
2019-01-23T22:43:14.978Z,69.40
2019-01-23T22:45:52.149Z,67.33
2019-01-23T22:48:32.843Z,64.60
2019-01-23T22:51:14.180Z,67.07
2019-01-23T22:53:54.682Z,63.73
2019-01-23T22:56:35.485Z,67.47
2019-01-23T22:59:16.451Z,62.97
2019-01-23T23:01:57.871Z,63.53
2019-01-23T23:04:38.312Z,63.33
2019-01-23T23:07:19.222Z,61.53
2019-01-23T23:10:00.426Z,58.53
2019-01-23T23:12:41.187Z,59.90
2019-01-23T23:15:22.285Z,58.50
2019-01-23T23:18:03.064Z,59.07
2019-01-23T23:20:43.629Z,62.20
2019-01-23T23:23:24.542Z,58.57
2019-01-23T23:26:05.417Z,57.37
2019-01-23T23:28:45.920Z,54.30
2019-01-23T23:31:29.392Z,54.80
2019-01-23T23:34:10.349Z,53.00
2019-01-23T23:36:50.936Z,53.13
2019-01-23T23:39:31.833Z,52.67
2019-01-23T23:42:14.114Z,51.17
2019-01-23T23:44:55.495Z,50.23
2019-01-23T23:47:36.577Z,51.63
2019-01-23T23:50:17.296Z,51.33
2019-01-23T23:58:42.045Z,49.83
